Time;durP1;ratioP1;P1;durP2;ratioP2;P2;SDS_P1;SDS_P2;PMS_P1;PMS_P2;Temp;Humidity;BMP_temperature;BMP_pressure;BME280_temperature;BME280_humidity;BME280_pressure;Samples;Min_cycle;Max_cycle;Signal;HPM_P1;HPM_P2
2022/05/23 00:00:28;;;;;;;3.88;2.08;;;14.80;99.90;;;;;;5050003;28;20048;-86
2022/05/23 00:02:54;;;;;;;2.95;1.95;;;14.70;99.90;;;;;;5049761;28;20037;-85
2022/05/23 00:05:20;;;;;;;4.38;2.17;;;14.70;99.90;;;;;;5049457;28;20037;-86
2022/05/23 00:07:48;;;;;;;5.05;2.40;;;14.60;99.90;;;;;;5033247;28;20093;-87
2022/05/23 00:10:16;;;;;;;3.50;2.10;;;14.60;99.90;;;;;;5049943;28;20041;-88
2022/05/23 00:12:43;;;;;;;4.68;2.00;;;14.50;99.90;;;;;;5033073;28;20037;-87
2022/05/23 00:15:10;;;;;;;4.72;2.10;;;14.50;99.90;;;;;;5031162;28;20041;-87
2022/05/23 00:17:36;;;;;;;5.28;2.47;;;14.40;99.90;;;;;;5049622;28;20037;-87
2022/05/23 00:20:07;;;;;;;4.45;2.20;;;14.40;99.90;;;;;;5049524;28;20068;-85
2022/05/23 00:22:33;;;;;;;4.05;2.05;;;14.30;99.90;;;;;;5033497;28;20465;-88
2022/05/23 00:24:58;;;;;;;4.38;2.15;;;14.30;99.90;;;;;;5032553;28;20091;-87
2022/05/23 00:27:25;;;;;;;4.20;1.98;;;14.30;99.90;;;;;;5049881;28;20502;-87
2022/05/23 00:29:51;;;;;;;4.93;2.17;;;14.30;99.90;;;;;;5031739;28;20524;-86
2022/05/23 00:35:20;;;;;;;5.53;2.30;;;14.20;99.90;;;;;;5048887;28;20499;-87
2022/05/23 00:37:48;;;;;;;4.88;2.20;;;14.20;99.90;;;;;;5036286;28;20082;-86
2022/05/23 00:40:41;;;;;;;6.80;2.03;;;14.20;99.90;;;;;;5052184;28;20087;-86
2022/05/23 00:43:27;;;;;;;4.53;2.13;;;14.10;99.90;;;;;;5034735;28;20044;-86
2022/05/23 00:46:00;;;;;;;5.40;2.40;;;14.10;99.90;;;;;;5032618;28;20048;-87
2022/05/23 00:48:28;;;;;;;5.25;2.28;;;14.10;99.90;;;;;;5033082;28;20146;-87
2022/05/23 00:50:57;;;;;;;5.78;2.30;;;14.00;99.90;;;;;;5016780;28;20551;-86
2022/05/23 00:53:37;;;;;;;6.75;2.30;;;14.00;99.90;;;;;;5045151;28;20063;-85
2022/05/23 00:56:07;;;;;;;5.78;2.42;;;14.00;99.90;;;;;;5052086;28;20043;-86
2022/05/23 00:58:37;;;;;;;5.80;2.30;;;14.00;99.90;;;;;;5051956;28;20495;-86
2022/05/23 01:01:08;;;;;;;5.93;2.30;;;14.00;99.90;;;;;;5053077;28;20094;-87
2022/05/23 01:03:34;;;;;;;4.35;2.30;;;13.90;99.90;;;;;;5036265;28;20080;-86
2022/05/23 01:05:59;;;;;;;5.35;2.33;;;13.90;99.90;;;;;;5052099;28;20079;-87
2022/05/23 01:08:26;;;;;;;5.82;2.40;;;13.80;99.90;;;;;;5041655;28;20076;-85
2022/05/23 01:10:52;;;;;;;6.20;2.38;;;13.70;99.90;;;;;;5032536;28;20045;-87
2022/05/23 01:13:17;;;;;;;5.85;2.47;;;13.70;99.90;;;;;;5032550;28;20048;-87
2022/05/23 01:15:48;;;;;;;5.78;2.30;;;13.70;99.90;;;;;;5032020;28;20033;-85
2022/05/23 01:18:15;;;;;;;3.65;2.45;;;13.60;99.90;;;;;;5032650;28;20499;-87
2022/05/23 01:20:41;;;;;;;4.80;2.30;;;13.60;99.90;;;;;;5032278;28;20029;-86
2022/05/23 01:23:36;;;;;;;6.47;2.60;;;13.60;99.90;;;;;;5032584;28;20555;-86
2022/05/23 01:26:03;;;;;;;5.30;2.40;;;13.50;99.90;;;;;;5032090;28;20041;-88
2022/05/23 01:28:38;;;;;;;3.97;2.42;;;13.50;99.90;;;;;;5032364;28;20045;-86
2022/05/23 01:31:09;;;;;;;5.47;2.33;;;13.40;99.90;;;;;;5037200;28;20045;-85
2022/05/23 01:33:35;;;;;;;3.72;2.30;;;13.40;99.90;;;;;;5035408;28;20079;-86
2022/05/23 01:36:01;;;;;;;5.28;2.53;;;13.30;99.90;;;;;;5035076;28;20080;-86
2022/05/23 01:38:27;;;;;;;4.07;2.70;;;13.30;99.90;;;;;;5035546;28;20037;-86
2022/05/23 01:40:57;;;;;;;7.25;2.47;;;13.20;99.90;;;;;;5068831;28;20045;-86
2022/05/23 01:43:24;;;;;;;6.35;2.60;;;13.30;99.90;;;;;;5068722;28;20480;-87
2022/05/23 01:45:50;;;;;;;3.65;2.30;;;13.20;99.90;;;;;;5034871;28;20052;-86
2022/05/23 01:48:15;;;;;;;4.75;2.90;;;13.20;99.90;;;;;;5067668;28;20518;-86
2022/05/23 01:50:41;;;;;;;4.95;2.90;;;13.20;99.90;;;;;;5066860;28;20041;-86
2022/05/23 01:53:06;;;;;;;4.75;2.45;;;13.20;99.90;;;;;;5033970;28;20048;-86
2022/05/23 01:55:32;;;;;;;6.03;2.65;;;13.30;99.90;;;;;;5067706;28;20033;-86
2022/05/23 01:57:58;;;;;;;7.28;3.22;;;13.30;99.90;;;;;;5034935;28;20033;-85
2022/05/23 02:03:08;;;;;;;3.63;2.58;;;13.40;99.90;;;;;;5051487;28;20179;-86
2022/05/23 02:05:34;;;;;;;6.28;3.05;;;13.40;99.90;;;;;;5050899;28;20206;-86
2022/05/23 02:08:01;;;;;;;4.38;3.05;;;13.40;99.90;;;;;;5065655;28;20041;-85
2022/05/23 02:10:27;;;;;;;6.10;3.03;;;13.40;99.90;;;;;;5033362;28;20051;-86
2022/05/23 02:12:53;;;;;;;5.60;3.70;;;13.40;99.90;;;;;;5049262;28;20608;-85
2022/05/23 02:15:20;;;;;;;7.57;3.70;;;13.40;99.90;;;;;;5049702;28;20112;-85
2022/05/23 02:17:46;;;;;;;8.43;3.60;;;13.40;99.90;;;;;;5034273;28;20036;-85
2022/05/23 02:20:12;;;;;;;6.78;3.75;;;13.40;99.90;;;;;;5033412;28;20475;-86
2022/05/23 02:22:38;;;;;;;5.93;4.35;;;13.40;99.90;;;;;;5051037;28;20064;-85
2022/05/23 02:25:05;;;;;;;6.72;3.72;;;13.40;99.90;;;;;;5035047;28;20079;-85
2022/05/23 02:27:31;;;;;;;5.60;4.07;;;13.40;99.90;;;;;;5034639;28;20625;-86
2022/05/23 02:29:57;;;;;;;6.80;4.05;;;13.40;99.90;;;;;;5051292;28;20064;-85
2022/05/23 02:32:24;;;;;;;7.07;4.47;;;13.40;99.90;;;;;;5034540;28;20032;-86
2022/05/23 02:34:49;;;;;;;6.28;3.80;;;13.40;99.90;;;;;;5050378;28;20414;-86
2022/05/23 02:37:15;;;;;;;6.50;4.10;;;13.40;99.90;;;;;;5034634;28;20037;-85
2022/05/23 02:39:41;;;;;;;9.88;4.38;;;13.40;99.90;;;;;;5062968;28;20438;-86
2022/05/23 02:42:07;;;;;;;6.50;4.38;;;13.40;99.90;;;;;;5047894;28;20052;-86
2022/05/23 02:44:34;;;;;;;9.10;4.47;;;13.40;99.90;;;;;;5050542;28;20131;-86
2022/05/23 02:47:00;;;;;;;6.00;4.18;;;13.30;99.90;;;;;;5049851;28;20140;-86
2022/05/23 02:49:26;;;;;;;6.00;4.00;;;13.30;99.90;;;;;;5041663;28;20053;-86
2022/05/23 02:51:53;;;;;;;7.38;4.22;;;13.30;99.90;;;;;;5033524;28;20029;-86
2022/05/23 02:54:18;;;;;;;6.90;4.40;;;13.20;99.90;;;;;;5033254;28;20045;-86
2022/05/23 02:56:44;;;;;;;8.40;4.13;;;13.20;99.90;;;;;;5051088;28;20380;-88
2022/05/23 02:59:10;;;;;;;6.72;3.90;;;13.20;99.90;;;;;;5050948;28;20047;-86
2022/05/23 03:03:01;;;;;;;5.50;4.18;;;13.20;99.90;;;;;;5034260;28;20037;-87
2022/05/23 03:04:21;;;;;;;5.45;3.80;;;13.30;99.90;;;;;;5049075;28;20044;-87
2022/05/23 03:06:46;;;;;;;5.70;3.95;;;13.20;99.90;;;;;;5046671;28;20108;-87
2022/05/23 03:09:12;;;;;;;6.78;3.92;;;13.30;99.90;;;;;;5022279;28;20116;-86
2022/05/23 03:11:37;;;;;;;6.25;3.83;;;13.10;99.90;;;;;;5047857;28;20048;-87
2022/05/23 03:14:03;;;;;;;6.85;3.88;;;13.10;99.90;;;;;;5030035;28;20049;-86
2022/05/23 03:16:28;;;;;;;5.47;4.00;;;13.10;99.90;;;;;;5030568;28;20038;-86
2022/05/23 03:18:54;;;;;;;7.05;4.47;;;13.10;99.90;;;;;;5039453;28;20039;-86
2022/05/23 03:27:00;;;;;;;7.68;4.50;;;13.00;99.90;;;;;;5049648;28;20045;-87
2022/05/23 03:29:28;;;;;;;6.60;3.95;;;12.90;99.90;;;;;;5034907;28;20232;-86
2022/05/23 03:31:53;;;;;;;6.18;4.30;;;12.90;99.90;;;;;;5049122;28;20048;-86
2022/05/23 03:34:19;;;;;;;9.05;4.55;;;12.90;99.90;;;;;;5031442;28;20518;-87
2022/05/23 03:36:45;;;;;;;6.05;4.30;;;12.90;99.90;;;;;;5013855;28;20068;-87
2022/05/23 03:39:10;;;;;;;6.10;4.60;;;12.80;99.90;;;;;;5045841;28;20068;-86
2022/05/23 03:41:38;;;;;;;5.88;4.40;;;12.90;99.90;;;;;;5043392;28;20124;-87
2022/05/23 03:44:05;;;;;;;6.93;4.10;;;12.80;99.90;;;;;;5032980;28;20344;-87
2022/05/23 03:46:31;;;;;;;6.05;4.50;;;12.90;99.90;;;;;;5032539;28;20045;-85
2022/05/23 03:48:57;;;;;;;4.82;4.20;;;12.90;99.90;;;;;;5033367;28;20442;-86
2022/05/23 03:51:23;;;;;;;5.80;4.05;;;12.80;99.90;;;;;;5032615;28;20033;-87
2022/05/23 03:53:48;;;;;;;6.22;4.10;;;12.90;99.90;;;;;;5048345;28;20043;-87
2022/05/23 03:56:14;;;;;;;6.80;4.55;;;12.90;99.90;;;;;;5042536;28;20549;-87
2022/05/23 03:58:39;;;;;;;7.95;4.07;;;12.90;99.90;;;;;;5039099;28;20222;-87
2022/05/23 04:01:08;;;;;;;5.85;4.15;;;12.90;99.90;;;;;;5048763;28;20905;-85
2022/05/23 04:03:35;;;;;;;5.22;4.10;;;12.90;99.90;;;;;;5022962;28;20034;-87
2022/05/23 04:06:01;;;;;;;6.53;4.28;;;13.00;99.90;;;;;;5029473;28;20396;-86
2022/05/23 04:08:27;;;;;;;7.43;4.32;;;13.00;99.90;;;;;;5064361;28;20037;-86
2022/05/23 04:10:53;;;;;;;7.85;4.30;;;13.00;99.90;;;;;;5049652;28;20422;-86
2022/05/23 04:13:19;;;;;;;5.00;4.03;;;12.90;99.90;;;;;;5051730;28;20041;-87
2022/05/23 04:15:45;;;;;;;9.88;4.30;;;13.00;99.90;;;;;;5051852;28;20037;-86
2022/05/23 04:18:10;;;;;;;7.90;4.35;;;12.90;99.90;;;;;;5046336;28;20037;-86
2022/05/23 04:20:36;;;;;;;5.95;4.30;;;13.00;99.90;;;;;;5017344;28;20052;-85
2022/05/23 04:23:02;;;;;;;6.95;4.38;;;13.00;99.90;;;;;;5038946;28;20048;-86
2022/05/23 04:25:27;;;;;;;6.25;4.40;;;12.90;99.90;;;;;;5050673;28;20045;-86
2022/05/23 04:27:53;;;;;;;5.70;4.50;;;13.00;99.90;;;;;;5052859;28;20417;-86
2022/05/23 04:30:19;;;;;;;9.20;4.82;;;13.00;99.90;;;;;;5052169;28;20045;-87
2022/05/23 04:35:28;;;;;;;6.68;4.43;;;12.90;99.90;;;;;;5052901;28;20037;-87
2022/05/23 04:37:55;;;;;;;6.45;4.53;;;13.00;99.90;;;;;;5035008;28;20037;-86
2022/05/23 04:40:24;;;;;;;6.38;4.53;;;13.10;99.90;;;;;;5035388;28;20364;-86
2022/05/23 04:42:50;;;;;;;7.90;4.57;;;13.10;99.90;;;;;;5033148;28;20045;-84
2022/05/23 04:45:17;;;;;;;4.97;4.35;;;13.20;99.90;;;;;;5065879;28;20041;-86
2022/05/23 04:50:26;;;;;;;7.05;4.70;;;13.40;99.90;;;;;;5051922;28;20049;-86
2022/05/23 04:52:53;;;;;;;6.30;4.95;;;13.50;99.90;;;;;;5048085;28;20045;-85
2022/05/23 04:55:19;;;;;;;6.88;4.60;;;13.60;99.90;;;;;;5039480;28;20406;-85
2022/05/23 04:57:46;;;;;;;6.88;4.55;;;13.70;99.90;;;;;;5036290;28;20037;-86
2022/05/23 05:00:18;;;;;;;7.10;4.68;;;13.80;99.90;;;;;;5034297;28;20044;-85
2022/05/23 05:02:44;;;;;;;7.53;4.60;;;13.90;99.90;;;;;;5024275;28;20047;-85
2022/05/23 05:05:11;;;;;;;6.25;4.70;;;13.90;99.90;;;;;;5044773;28;20047;-85
2022/05/23 05:07:36;;;;;;;8.27;4.93;;;13.90;99.90;;;;;;5041837;28;20503;-86
2022/05/23 05:10:04;;;;;;;6.38;4.60;;;14.00;99.90;;;;;;5036848;28;20036;-85
2022/05/23 05:12:29;;;;;;;5.70;4.65;;;14.10;99.90;;;;;;5050460;28;20041;-85
2022/05/23 05:14:55;;;;;;;6.65;4.63;;;14.10;99.90;;;;;;5039416;28;20423;-85
2022/05/23 05:17:21;;;;;;;5.45;4.63;;;14.20;99.90;;;;;;5043329;28;20041;-86
2022/05/23 05:19:47;;;;;;;7.97;4.85;;;14.30;99.90;;;;;;5032470;28;20533;-85
2022/05/23 05:22:13;;;;;;;7.85;5.10;;;14.40;99.90;;;;;;5031612;28;20041;-85
2022/05/23 05:24:39;;;;;;;6.55;4.65;;;14.50;99.90;;;;;;5033513;28;20051;-85
2022/05/23 05:27:04;;;;;;;7.65;4.50;;;14.50;99.90;;;;;;5049637;28;20495;-87
2022/05/23 05:29:30;;;;;;;6.97;4.38;;;14.60;99.90;;;;;;5051652;28;20123;-87
2022/05/23 05:31:58;;;;;;;6.75;4.20;;;14.50;99.90;;;;;;5046451;28;20053;-85
2022/05/23 05:34:38;;;;;;;6.63;4.60;;;14.50;99.90;;;;;;5040303;28;20033;-86
2022/05/23 05:37:21;;;;;;;8.88;4.88;;;14.50;99.90;;;;;;5031455;28;20513;-85
2022/05/23 05:39:48;;;;;;;5.43;4.40;;;14.50;99.90;;;;;;5036855;28;20415;-85
2022/05/23 05:42:20;;;;;;;5.70;4.78;;;14.50;99.90;;;;;;5043971;28;20071;-84
2022/05/23 05:44:53;;;;;;;7.13;4.38;;;14.50;99.90;;;;;;5061153;28;20044;-86
2022/05/23 05:47:20;;;;;;;5.38;4.32;;;14.60;99.90;;;;;;5066672;28;20041;-84
2022/05/23 05:49:49;;;;;;;7.05;5.25;;;14.60;99.90;;;;;;5035281;28;20087;-86
2022/05/23 05:52:18;;;;;;;8.00;5.05;;;14.70;99.90;;;;;;5051879;28;20093;-84
2022/05/23 05:54:43;;;;;;;7.05;4.75;;;14.80;99.90;;;;;;5033785;28;20117;-84
2022/05/23 05:57:11;;;;;;;7.60;4.90;;;14.80;99.90;;;;;;5051635;28;20106;-86
2022/05/23 05:59:37;;;;;;;8.20;4.60;;;15.00;99.90;;;;;;5032635;28;20207;-86
2022/05/23 06:02:03;;;;;;;8.75;5.28;;;15.10;99.90;;;;;;5036834;28;20159;-82
2022/05/23 06:04:29;;;;;;;5.97;4.35;;;15.30;99.90;;;;;;5050181;28;20045;-87
2022/05/23 06:12:22;;;;;;;;;;;15.50;99.90;;;;;;5031470;28;20050;-87
2022/05/23 06:14:48;;;;;;;7.93;4.90;;;15.50;99.90;;;;;;5042403;28;19925;-87
2022/05/23 06:17:13;;;;;;;10.00;5.22;;;15.50;99.90;;;;;;5051523;28;20036;-88
2022/05/23 06:19:43;;;;;;;7.28;5.18;;;15.50;99.90;;;;;;5015860;28;20509;-86
2022/05/23 06:22:09;;;;;;;10.13;5.13;;;15.50;99.90;;;;;;5031623;28;20045;-84
2022/05/23 06:24:35;;;;;;;6.43;4.82;;;15.60;99.90;;;;;;5043886;28;20063;-86
2022/05/23 06:27:03;;;;;;;7.68;4.82;;;15.60;99.90;;;;;;5045411;28;20087;-86
2022/05/23 06:29:30;;;;;;;7.57;5.20;;;15.80;99.90;;;;;;5037064;28;20411;-87
2022/05/23 06:31:55;;;;;;;7.47;4.68;;;16.00;99.90;;;;;;5050858;28;20041;-85
2022/05/23 06:34:21;;;;;;;7.80;5.10;;;16.10;99.90;;;;;;5049397;28;20072;-87
2022/05/23 06:36:46;;;;;;;8.98;5.30;;;16.20;99.90;;;;;;5033096;28;20479;-84
2022/05/23 06:39:12;;;;;;;8.50;5.78;;;16.30;99.90;;;;;;5032625;28;20158;-81
2022/05/23 06:41:37;;;;;;;8.50;5.35;;;16.40;99.90;;;;;;5049221;28;20049;-84
2022/05/23 06:44:03;;;;;;;8.57;5.15;;;16.40;99.90;;;;;;5048877;28;20045;-84
2022/05/23 06:46:29;;;;;;;7.30;5.03;;;16.30;99.90;;;;;;5049944;28;20090;-84
2022/05/23 06:48:54;;;;;;;6.60;5.35;;;16.30;99.90;;;;;;5049372;28;20064;-85
2022/05/23 06:51:20;;;;;;;8.48;5.20;;;16.30;99.90;;;;;;5048920;28;20063;-88
2022/05/23 06:53:45;;;;;;;9.65;6.00;;;16.30;99.90;;;;;;5049365;28;20052;-85
2022/05/23 06:56:12;;;;;;;7.47;5.13;;;16.30;99.90;;;;;;5051232;28;20060;-84
2022/05/23 06:58:38;;;;;;;7.43;5.63;;;16.40;99.90;;;;;;5034208;28;20040;-84
2022/05/23 07:01:04;;;;;;;11.02;5.50;;;16.50;99.90;;;;;;5033004;28;21868;-85
2022/05/23 07:03:29;;;;;;;8.65;5.72;;;16.50;99.90;;;;;;5047744;28;20475;-84
2022/05/23 07:14:08;;;;;;;10.55;5.78;;;16.60;99.90;;;;;;5048880;28;20057;-85
2022/05/23 07:16:34;;;;;;;9.93;5.43;;;16.80;99.90;;;;;;5032538;28;20099;-87
2022/05/23 07:19:00;;;;;;;7.63;5.50;;;16.80;99.90;;;;;;5044744;28;20052;-84
2022/05/23 07:21:26;;;;;;;7.78;5.60;;;17.00;99.90;;;;;;5045567;28;20049;-85
2022/05/23 07:23:52;;;;;;;7.60;5.30;;;17.10;99.90;;;;;;5045490;28;20033;-85
2022/05/23 07:26:19;;;;;;;8.40;5.43;;;17.30;99.90;;;;;;5046148;28;20077;-85
2022/05/23 07:28:46;;;;;;;7.07;5.18;;;17.40;99.90;;;;;;5043398;28;20059;-83
2022/05/23 07:31:12;;;;;;;8.43;5.70;;;17.50;99.90;;;;;;5033821;28;20419;-86
2022/05/23 07:33:39;;;;;;;7.30;5.30;;;17.60;99.90;;;;;;5028486;28;20041;-85
2022/05/23 07:36:06;;;;;;;8.75;5.80;;;17.60;99.90;;;;;;5029294;28;20037;-85
2022/05/23 07:38:33;;;;;;;10.25;5.30;;;17.80;99.90;;;;;;5045709;28;20029;-86
2022/05/23 07:40:59;;;;;;;9.25;5.80;;;17.90;99.90;;;;;;5049245;28;20033;-85
2022/05/23 07:43:25;;;;;;;7.15;5.22;;;17.90;99.90;;;;;;5045384;28;20056;-84
2022/05/23 07:45:52;;;;;;;7.15;4.90;;;18.00;99.90;;;;;;5038083;28;20440;-84
2022/05/23 07:48:18;;;;;;;8.63;5.57;;;18.00;99.90;;;;;;5034459;28;20526;-83
2022/05/23 07:50:45;;;;;;;8.02;5.45;;;18.00;99.90;;;;;;5017394;28;20037;-84
2022/05/23 08:01:24;;;;;;;;;;;18.30;99.90;;;;;;5034626;28;20045;-85
2022/05/23 08:03:50;;;;;;;9.43;5.45;;;18.30;99.90;;;;;;5039013;28;19916;-84
2022/05/23 08:06:17;;;;;;;7.88;5.32;;;18.40;99.90;;;;;;5054180;28;20052;-83
2022/05/23 08:08:43;;;;;;;8.50;5.75;;;18.50;99.90;;;;;;5037499;28;20052;-85
2022/05/23 08:11:08;;;;;;;8.20;5.65;;;18.70;99.90;;;;;;5037234;28;20036;-86
2022/05/23 08:13:36;;;;;;;7.35;5.32;;;18.90;99.90;;;;;;5051834;28;20033;-84
2022/05/23 08:16:02;;;;;;;5.95;5.13;;;18.90;99.90;;;;;;5053450;28;20411;-84
2022/05/23 08:18:27;;;;;;;9.38;5.75;;;18.90;99.90;;;;;;5053485;28;20044;-82
2022/05/23 08:20:53;;;;;;;6.63;5.03;;;18.90;99.90;;;;;;5050152;28;20037;-85
2022/05/23 08:23:18;;;;;;;9.20;5.25;;;18.90;99.90;;;;;;5050571;28;20041;-83
2022/05/23 08:25:44;;;;;;;9.27;5.53;;;19.00;99.90;;;;;;5044510;28;20048;-84
2022/05/23 08:28:10;;;;;;;8.70;6.13;;;19.10;99.90;;;;;;5036988;28;20127;-85
2022/05/23 08:30:36;;;;;;;7.28;5.43;;;19.30;99.90;;;;;;5036158;28;20076;-81
2022/05/23 08:33:01;;;;;;;7.75;5.68;;;19.40;99.90;;;;;;5053042;28;20041;-84
2022/05/23 08:35:27;;;;;;;10.73;6.55;;;19.60;99.90;;;;;;5052521;28;20557;-84
2022/05/23 08:37:54;;;;;;;8.00;5.88;;;19.80;99.90;;;;;;5053164;28;20083;-83
2022/05/23 08:40:25;;;;;;;12.63;6.40;;;19.90;99.90;;;;;;5053502;28;20075;-84
2022/05/23 08:42:58;;;;;;;8.85;5.68;;;19.90;99.90;;;;;;5053713;28;20384;-82
2022/05/23 08:45:35;;;;;;;8.15;6.10;;;19.90;99.90;;;;;;5051765;28;20124;-83
2022/05/23 08:48:27;;;;;;;14.90;6.50;;;19.80;99.90;;;;;;5032222;28;20075;-84
2022/05/23 08:51:16;;;;;;;8.80;5.88;;;19.70;99.90;;;;;;5034743;28;20120;-83
2022/05/23 08:54:14;;;;;;;7.03;5.47;;;19.70;99.90;;;;;;5049816;28;20418;-83
2022/05/23 08:56:45;;;;;;;6.82;5.40;;;19.80;99.90;;;;;;5033656;28;20044;-82
2022/05/23 08:59:27;;;;;;;10.57;5.80;;;19.90;99.90;;;;;;5051340;28;20041;-85
2022/05/23 09:02:06;;;;;;;9.45;5.35;;;20.00;99.90;;;;;;5043736;28;20055;-82
2022/05/23 09:04:44;;;;;;;10.65;6.13;;;20.20;99.90;;;;;;5050316;28;20072;-79
2022/05/23 09:07:48;;;;;;;10.90;6.18;;;20.60;99.90;;;;;;5036175;28;20048;-80
2022/05/23 09:10:33;;;;;;;11.43;6.25;;;20.80;99.90;;;;;;5046706;28;20692;-78
2022/05/23 09:12:59;;;;;;;9.15;5.65;;;21.00;99.90;;;;;;5045032;28;20400;-82
2022/05/23 09:15:25;;;;;;;11.10;5.65;;;21.10;99.90;;;;;;5029771;28;20048;-82
2022/05/23 09:17:58;;;;;;;7.50;5.38;;;21.20;99.90;;;;;;5049586;28;20029;-82
2022/05/23 09:20:45;;;;;;;12.27;6.13;;;21.30;99.90;;;;;;5052482;28;20033;-81
2022/05/23 09:23:27;;;;;;;10.15;5.95;;;21.40;99.90;;;;;;5053169;28;20070;-81
2022/05/23 09:25:54;;;;;;;9.50;6.15;;;21.50;99.90;;;;;;5049972;28;20044;-82
2022/05/23 09:28:29;;;;;;;7.15;5.15;;;21.50;99.90;;;;;;5047927;28;20141;-81
2022/05/23 09:31:18;;;;;;;11.07;5.60;;;21.50;99.90;;;;;;5044820;28;20037;-81
2022/05/23 09:33:47;;;;;;;9.65;5.40;;;21.60;99.90;;;;;;5046598;28;20437;-82
2022/05/23 09:36:34;;;;;;;7.95;5.07;;;21.80;99.90;;;;;;5031309;28;20084;-81
2022/05/23 09:39:07;;;;;;;10.90;5.05;;;21.90;99.90;;;;;;5031987;28;20078;-81
2022/05/23 09:49:52;;;;;;;6.40;3.65;;;22.60;99.90;;;;;;5048346;28;20033;-82
2022/05/23 09:52:29;;;;;;;6.53;3.30;;;22.70;99.90;;;;;;5048355;28;20045;-79
2022/05/23 09:55:10;;;;;;;7.40;3.90;;;22.80;99.90;;;;;;5045231;28;20041;-81
2022/05/23 09:57:40;;;;;;;6.10;3.55;;;22.80;99.90;;;;;;5047085;28;20056;-80
2022/05/23 10:00:32;;;;;;;5.43;3.20;;;22.80;99.90;;;;;;5048714;28;20743;-81
2022/05/23 10:02:59;;;;;;;6.63;2.92;;;22.90;99.90;;;;;;5045806;28;20430;-83
2022/05/23 10:05:35;;;;;;;7.18;3.22;;;22.90;99.90;;;;;;5046692;28;20045;-82
2022/05/23 10:08:04;;;;;;;5.60;2.92;;;22.90;99.90;;;;;;5030755;28;20560;-81
2022/05/23 10:10:35;;;;;;;5.45;3.25;;;22.90;99.90;;;;;;5046177;28;20067;-83
2022/05/23 10:13:32;;;;;;;7.60;2.80;;;23.00;99.90;;;;;;5040190;28;20483;-84
2022/05/23 10:16:12;;;;;;;3.70;2.80;;;23.00;99.90;;;;;;5041447;28;20137;-84
2022/05/23 10:19:02;;;;;;;4.78;2.55;;;23.20;99.90;;;;;;5045302;28;20449;-82
2022/05/23 10:21:43;;;;;;;6.63;2.80;;;23.30;99.90;;;;;;5046090;28;20037;-81
2022/05/23 10:24:09;;;;;;;4.18;2.80;;;23.50;99.90;;;;;;5045829;28;20033;-81
2022/05/23 10:26:48;;;;;;;5.00;3.10;;;23.60;99.90;;;;;;5049083;28;20052;-82
2022/05/23 10:29:42;;;;;;;5.75;2.83;;;23.70;99.90;;;;;;5045925;28;20029;-81
2022/05/23 10:32:15;;;;;;;6.55;2.63;;;23.80;99.90;;;;;;5029518;28;20065;-81
2022/05/23 10:34:50;;;;;;;5.10;2.70;;;23.80;99.90;;;;;;5046640;28;20036;-81
2022/05/23 10:37:18;;;;;;;4.95;2.67;;;23.70;99.90;;;;;;5045203;28;20040;-83
2022/05/23 10:42:33;;;;;;;4.57;2.30;;;23.60;99.90;;;;;;5045834;28;20060;-84
2022/05/23 10:45:13;;;;;;;4.72;2.60;;;23.80;99.90;;;;;;5051355;28;20036;-82
2022/05/23 10:48:22;;;;;;;5.53;2.70;;;23.90;99.90;;;;;;5046449;28;20045;-83
2022/05/23 10:50:58;;;;;;;6.22;2.78;;;24.00;99.90;;;;;;5048282;28;20079;-83
2022/05/23 10:53:37;;;;;;;5.43;2.40;;;24.30;99.90;;;;;;5048357;28;20045;-82
2022/05/23 10:56:36;;;;;;;4.88;2.58;;;24.50;99.90;;;;;;5049132;28;20566;-83
2022/05/23 10:59:08;;;;;;;5.93;2.50;;;24.70;99.90;;;;;;5050322;28;20177;-81
2022/05/23 11:01:55;;;;;;;4.47;2.35;;;24.80;99.90;;;;;;5051084;28;20490;-84
2022/05/23 11:04:38;;;;;;;4.88;2.03;;;24.90;99.90;;;;;;5046360;28;20045;-82
2022/05/23 11:07:29;;;;;;;3.97;2.08;;;25.00;99.90;;;;;;5044605;28;20041;-83
2022/05/23 11:10:02;;;;;;;4.05;1.80;;;25.10;99.90;;;;;;5031935;28;20435;-81
2022/05/23 11:12:37;;;;;;;3.55;1.80;;;25.30;99.90;;;;;;5021126;28;20056;-82
2022/05/23 11:15:29;;;;;;;4.15;2.10;;;25.40;99.80;;;;;;5050234;28;20395;-85
2022/05/23 11:18:37;;;;;;;2.80;1.88;;;25.50;98.90;;;;;;5033956;28;20407;-86
2022/05/23 11:21:11;;;;;;;14.15;3.00;;;25.70;98.90;;;;;;5033519;28;20029;-83
2022/05/23 11:23:40;;;;;;;7.28;2.10;;;25.60;98.20;;;;;;5033522;28;20089;-87
2022/05/23 11:26:20;;;;;;;13.57;6.28;;;25.80;98.50;;;;;;5049491;28;20048;-82
2022/05/23 11:34:43;;;;;;;5.28;2.35;;;26.30;98.30;;;;;;5050330;28;20453;-83
2022/05/23 11:40:01;;;;;;;4.78;2.05;;;26.40;97.00;;;;;;5050249;28;20515;-86
2022/05/23 11:42:50;;;;;;;5.35;2.20;;;26.40;95.50;;;;;;5050054;28;20119;-85
2022/05/23 11:51:19;;;;;;;;;;;25.90;95.60;;;;;;5061338;28;20498;-86
2022/05/23 11:54:00;;;;;;;3.83;2.00;;;25.80;96.40;;;;;;5049739;28;19927;-86
2022/05/23 11:56:33;;;;;;;6.13;2.30;;;25.70;96.40;;;;;;5034012;28;20475;-86
2022/05/23 11:58:59;;;;;;;4.05;2.33;;;25.90;96.30;;;;;;5050316;28;20558;-83
2022/05/23 12:01:27;;;;;;;3.90;2.10;;;26.20;96.30;;;;;;5033716;28;20083;-85
2022/05/23 12:03:54;;;;;;;3.22;1.90;;;26.20;96.40;;;;;;5049539;28;20140;-86
2022/05/23 12:06:29;;;;;;;3.60;2.28;;;26.20;96.50;;;;;;5049918;28;20056;-85
2022/05/23 12:08:58;;;;;;;3.80;1.80;;;26.20;96.80;;;;;;5050785;28;20482;-87
2022/05/23 12:11:45;;;;;;;5.03;1.95;;;26.10;96.80;;;;;;5049858;28;20095;-87
2022/05/23 12:14:32;;;;;;;3.70;2.10;;;26.10;96.60;;;;;;5033698;28;20048;-86
2022/05/23 12:16:58;;;;;;;4.15;2.03;;;26.10;95.90;;;;;;5050555;28;20428;-87
2022/05/23 12:19:39;;;;;;;3.13;1.98;;;26.10;96.30;;;;;;5050467;28;20041;-87
2022/05/23 12:22:24;;;;;;;4.70;1.70;;;26.10;95.70;;;;;;5050160;28;20037;-87
2022/05/23 12:25:08;;;;;;;4.32;1.95;;;26.00;94.60;;;;;;5049534;28;20045;-86
2022/05/23 12:27:41;;;;;;;5.15;1.70;;;26.10;96.10;;;;;;5034283;28;20083;-87
2022/05/23 12:30:22;;;;;;;5.35;1.77;;;25.90;96.40;;;;;;5046150;28;20045;-88
2022/05/23 12:33:00;;;;;;;4.47;1.70;;;25.70;95.20;;;;;;5021996;28;20045;-87
2022/05/23 12:35:41;;;;;;;4.32;1.88;;;25.60;96.10;;;;;;5053228;28;20109;-86
2022/05/23 12:38:48;;;;;;;6.28;1.90;;;25.50;95.80;;;;;;5049251;28;20041;-88
2022/05/23 12:41:32;;;;;;;3.60;1.77;;;25.30;94.20;;;;;;5055975;28;20086;-88
2022/05/23 12:44:42;;;;;;;3.47;1.60;;;25.20;95.00;;;;;;5047668;28;20208;-86
2022/05/23 12:47:27;;;;;;;5.03;1.95;;;25.00;94.40;;;;;;5035990;28;20049;-88
2022/05/23 12:50:12;;;;;;;3.38;1.83;;;24.90;94.80;;;;;;5043133;28;21224;-89
2022/05/23 12:53:00;;;;;;;5.88;2.00;;;24.80;94.80;;;;;;4962203;28;21159;-88
2022/05/23 12:55:44;;;;;;;3.28;2.10;;;24.80;95.20;;;;;;4945228;28;20405;-89
2022/05/23 12:58:09;;;;;;;4.90;1.98;;;24.80;95.30;;;;;;5009539;28;20052;-89
2022/05/23 13:00:39;;;;;;;5.47;2.10;;;24.90;95.70;;;;;;4992750;28;20046;-87
2022/05/23 13:03:07;;;;;;;4.22;2.00;;;24.90;95.90;;;;;;5007837;28;20129;-87
2022/05/23 13:05:40;;;;;;;4.32;2.10;;;25.00;95.90;;;;;;5009582;28;20042;-88
2022/05/23 13:08:31;;;;;;;5.18;2.00;;;25.00;96.10;;;;;;4987035;28;20046;-88
2022/05/23 13:11:02;;;;;;;4.32;2.03;;;25.00;97.00;;;;;;4983879;28;20038;-88
2022/05/23 13:13:35;;;;;;;8.32;2.08;;;24.90;96.40;;;;;;5009003;28;20116;-88
2022/05/23 13:16:31;;;;;;;5.32;1.98;;;24.70;96.70;;;;;;5005717;28;20420;-87
2022/05/23 13:22:23;;;;;;;5.18;1.80;;;24.60;96.80;;;;;;4992311;28;20105;-88
2022/05/23 13:24:59;;;;;;;4.95;2.15;;;24.50;97.10;;;;;;5002118;28;20049;-87
2022/05/23 13:27:48;;;;;;;4.03;1.90;;;24.40;95.70;;;;;;5010681;28;20125;-88
2022/05/23 13:30:17;;;;;;;4.35;2.10;;;24.40;96.90;;;;;;4996538;28;20038;-88
2022/05/23 13:32:43;;;;;;;6.60;2.33;;;24.30;96.40;;;;;;4996242;28;20104;-88
2022/05/23 13:35:19;;;;;;;4.45;2.00;;;24.30;96.60;;;;;;5011755;28;20042;-88
2022/05/23 13:37:44;;;;;;;4.22;1.98;;;24.20;96.30;;;;;;5011959;28;20033;-87
2022/05/23 13:40:29;;;;;;;4.47;2.13;;;24.10;96.70;;;;;;4995957;28;20044;-86
2022/05/23 13:43:20;;;;;;;4.38;2.60;;;24.10;96.20;;;;;;5007751;28;20037;-87
2022/05/23 13:45:56;;;;;;;5.70;2.55;;;24.00;96.20;;;;;;5006762;28;20404;-86
2022/05/23 13:48:36;;;;;;;5.07;2.20;;;24.00;96.70;;;;;;4998875;28;20096;-87
2022/05/23 13:51:06;;;;;;;6.07;2.15;;;24.00;97.00;;;;;;4998119;28;20042;-87
2022/05/23 13:53:48;;;;;;;5.97;2.63;;;23.90;97.80;;;;;;4999319;28;20721;-88
2022/05/23 13:56:15;;;;;;;6.35;2.85;;;23.90;98.80;;;;;;5016944;28;20080;-87
2022/05/23 13:58:47;;;;;;;4.95;2.85;;;23.90;99.70;;;;;;4991687;28;20526;-87
2022/05/23 14:01:22;;;;;;;4.35;2.67;;;23.80;99.90;;;;;;5010922;28;20034;-87
2022/05/23 14:03:57;;;;;;;4.47;2.80;;;23.80;99.90;;;;;;5004304;28;20500;-88
2022/05/23 14:06:30;;;;;;;4.22;2.60;;;23.80;99.90;;;;;;5012502;28;20042;-88
2022/05/23 14:08:58;;;;;;;;;;;24.00;99.90;;;;;;4994823;28;20503;-87
2022/05/23 14:11:30;;;;;;;5.70;2.75;;;24.20;99.90;;;;;;5008653;28;19921;-87
2022/05/23 14:14:11;;;;;;;4.88;2.75;;;24.30;99.90;;;;;;4986323;28;20047;-87
2022/05/23 14:16:37;;;;;;;4.35;2.75;;;24.40;99.90;;;;;;5003180;28;20049;-88